sensor_id;sensor_type;location;lat;lon;timestamp;temperature;humidity
76878;DHT22;65843;50.692;12.844;2023-02-01T00:00:10;18.20;60.90
76878;DHT22;65843;50.692;12.844;2023-02-01T00:01:12;18.20;61.00
76878;DHT22;65843;50.692;12.844;2023-02-01T00:02:13;18.20;61.00
76878;DHT22;65843;50.692;12.844;2023-02-01T00:03:13;18.20;60.80
76878;DHT22;65843;50.692;12.844;2023-02-01T00:04:15;18.20;61.00
76878;DHT22;65843;50.692;12.844;2023-02-01T00:05:16;18.20;60.90
76878;DHT22;65843;50.692;12.844;2023-02-01T00:06:17;18.20;60.70
76878;DHT22;65843;50.692;12.844;2023-02-01T00:07:18;18.20;60.70
76878;DHT22;65843;50.692;12.844;2023-02-01T00:08:18;18.20;60.80
76878;DHT22;65843;50.692;12.844;2023-02-01T00:09:19;18.20;60.90
76878;DHT22;65843;50.692;12.844;2023-02-01T00:10:20;18.20;60.60
76878;DHT22;65843;50.692;12.844;2023-02-01T00:11:21;18.20;61.10
76878;DHT22;65843;50.692;12.844;2023-02-01T00:12:23;18.20;60.60
76878;DHT22;65843;50.692;12.844;2023-02-01T00:13:23;18.20;61.10
76878;DHT22;65843;50.692;12.844;2023-02-01T00:14:24;18.20;60.90
76878;DHT22;65843;50.692;12.844;2023-02-01T00:15:25;18.20;61.00
76878;DHT22;65843;50.692;12.844;2023-02-01T00:16:27;18.20;61.10
76878;DHT22;65843;50.692;12.844;2023-02-01T00:17:28;18.20;60.90
76878;DHT22;65843;50.692;12.844;2023-02-01T00:18:29;18.20;61.10
76878;DHT22;65843;50.692;12.844;2023-02-01T00:19:30;18.20;60.90
76878;DHT22;65843;50.692;12.844;2023-02-01T00:20:31;18.20;60.70
76878;DHT22;65843;50.692;12.844;2023-02-01T00:21:32;18.20;61.00
76878;DHT22;65843;50.692;12.844;2023-02-01T00:22:33;18.20;60.40
76878;DHT22;65843;50.692;12.844;2023-02-01T00:23:34;18.20;60.20
76878;DHT22;65843;50.692;12.844;2023-02-01T00:24:35;18.20;60.80
76878;DHT22;65843;50.692;12.844;2023-02-01T00:25:36;18.20;61.30
76878;DHT22;65843;50.692;12.844;2023-02-01T00:26:38;18.10;60.70
76878;DHT22;65843;50.692;12.844;2023-02-01T00:27:39;18.10;60.50
76878;DHT22;65843;50.692;12.844;2023-02-01T00:28:40;18.10;60.50
76878;DHT22;65843;50.692;12.844;2023-02-01T00:29:41;18.10;60.50
76878;DHT22;65843;50.692;12.844;2023-02-01T00:30:42;18.10;60.30
76878;DHT22;65843;50.692;12.844;2023-02-01T00:31:43;18.10;60.10
76878;DHT22;65843;50.692;12.844;2023-02-01T00:32:44;18.10;60.30
76878;DHT22;65843;50.692;12.844;2023-02-01T00:33:48;18.10;60.60
76878;DHT22;65843;50.692;12.844;2023-02-01T00:34:49;18.10;60.30
76878;DHT22;65843;50.692;12.844;2023-02-01T00:35:50;18.10;60.30
76878;DHT22;65843;50.692;12.844;2023-02-01T00:36:51;18.10;60.70
76878;DHT22;65843;50.692;12.844;2023-02-01T00:37:52;18.10;61.00
76878;DHT22;65843;50.692;12.844;2023-02-01T00:38:53;18.10;60.80
76878;DHT22;65843;50.692;12.844;2023-02-01T00:39:54;18.10;60.80
76878;DHT22;65843;50.692;12.844;2023-02-01T00:41:03;18.10;61.30
76878;DHT22;65843;50.692;12.844;2023-02-01T00:42:04;18.10;61.50
76878;DHT22;65843;50.692;12.844;2023-02-01T00:43:05;18.10;61.40
76878;DHT22;65843;50.692;12.844;2023-02-01T00:44:06;18.10;61.40
76878;DHT22;65843;50.692;12.844;2023-02-01T00:45:07;18.10;61.20
76878;DHT22;65843;50.692;12.844;2023-02-01T00:46:08;18.10;61.10
76878;DHT22;65843;50.692;12.844;2023-02-01T00:47:09;18.10;61.30
76878;DHT22;65843;50.692;12.844;2023-02-01T00:48:10;18.10;61.50
76878;DHT22;65843;50.692;12.844;2023-02-01T00:49:11;18.20;61.50
76878;DHT22;65843;50.692;12.844;2023-02-01T00:50:12;18.20;61.50
76878;DHT22;65843;50.692;12.844;2023-02-01T00:51:14;18.20;61.50
76878;DHT22;65843;50.692;12.844;2023-02-01T00:52:15;18.20;61.70
76878;DHT22;65843;50.692;12.844;2023-02-01T00:53:16;18.20;61.80
76878;DHT22;65843;50.692;12.844;2023-02-01T00:54:17;18.20;62.00
76878;DHT22;65843;50.692;12.844;2023-02-01T00:55:18;18.20;61.90
76878;DHT22;65843;50.692;12.844;2023-02-01T00:56:19;18.20;61.90
76878;DHT22;65843;50.692;12.844;2023-02-01T00:57:20;18.30;61.80
76878;DHT22;65843;50.692;12.844;2023-02-01T00:58:21;18.30;61.70
76878;DHT22;65843;50.692;12.844;2023-02-01T00:59:24;18.30;61.80
76878;DHT22;65843;50.692;12.844;2023-02-01T01:00:25;18.30;61.80
76878;DHT22;65843;50.692;12.844;2023-02-01T01:01:26;18.30;61.80
76878;DHT22;65843;50.692;12.844;2023-02-01T01:02:27;18.30;61.80
76878;DHT22;65843;50.692;12.844;2023-02-01T01:03:28;18.30;61.80
76878;DHT22;65843;50.692;12.844;2023-02-01T01:04:33;18.30;61.70
76878;DHT22;65843;50.692;12.844;2023-02-01T01:05:34;18.30;61.80
76878;DHT22;65843;50.692;12.844;2023-02-01T01:06:35;18.30;62.00
76878;DHT22;65843;50.692;12.844;2023-02-01T01:07:36;18.30;61.80
76878;DHT22;65843;50.692;12.844;2023-02-01T01:08:37;18.30;61.90
76878;DHT22;65843;50.692;12.844;2023-02-01T01:09:38;18.30;61.70
76878;DHT22;65843;50.692;12.844;2023-02-01T01:10:39;18.30;61.80
76878;DHT22;65843;50.692;12.844;2023-02-01T01:11:40;18.30;61.70
76878;DHT22;65843;50.692;12.844;2023-02-01T01:12:41;18.30;61.70
76878;DHT22;65843;50.692;12.844;2023-02-01T01:13:42;18.30;61.80
76878;DHT22;65843;50.692;12.844;2023-02-01T01:14:43;18.30;61.80
76878;DHT22;65843;50.692;12.844;2023-02-01T01:15:44;18.30;61.70
76878;DHT22;65843;50.692;12.844;2023-02-01T01:16:45;18.30;61.60
76878;DHT22;65843;50.692;12.844;2023-02-01T01:17:46;18.30;61.70
76878;DHT22;65843;50.692;12.844;2023-02-01T01:18:46;18.30;61.60
76878;DHT22;65843;50.692;12.844;2023-02-01T01:19:47;18.30;61.70
76878;DHT22;65843;50.692;12.844;2023-02-01T01:20:48;18.40;61.70
76878;DHT22;65843;50.692;12.844;2023-02-01T01:21:49;18.30;61.60
76878;DHT22;65843;50.692;12.844;2023-02-01T01:22:50;18.30;61.40
76878;DHT22;65843;50.692;12.844;2023-02-01T01:23:51;18.40;61.50
76878;DHT22;65843;50.692;12.844;2023-02-01T01:24:52;18.40;61.60
76878;DHT22;65843;50.692;12.844;2023-02-01T01:25:53;18.40;61.30
76878;DHT22;65843;50.692;12.844;2023-02-01T01:26:53;18.30;61.50
76878;DHT22;65843;50.692;12.844;2023-02-01T01:27:54;18.30;61.40
76878;DHT22;65843;50.692;12.844;2023-02-01T01:28:56;18.40;61.50
76878;DHT22;65843;50.692;12.844;2023-02-01T01:29:57;18.40;61.60
76878;DHT22;65843;50.692;12.844;2023-02-01T01:30:58;18.40;61.40
76878;DHT22;65843;50.692;12.844;2023-02-01T01:31:58;18.40;61.30
76878;DHT22;65843;50.692;12.844;2023-02-01T01:32:59;18.40;61.40
76878;DHT22;65843;50.692;12.844;2023-02-01T01:34:00;18.40;61.40
76878;DHT22;65843;50.692;12.844;2023-02-01T01:35:01;18.40;61.20
76878;DHT22;65843;50.692;12.844;2023-02-01T01:36:04;18.40;61.40
76878;DHT22;65843;50.692;12.844;2023-02-01T01:37:05;18.40;61.50
76878;DHT22;65843;50.692;12.844;2023-02-01T01:38:06;18.40;61.30
76878;DHT22;65843;50.692;12.844;2023-02-01T01:39:06;18.40;61.30
76878;DHT22;65843;50.692;12.844;2023-02-01T01:40:08;18.40;61.40
76878;DHT22;65843;50.692;12.844;2023-02-01T01:41:12;18.40;61.20
76878;DHT22;65843;50.692;12.844;2023-02-01T01:42:13;18.40;61.50
76878;DHT22;65843;50.692;12.844;2023-02-01T01:43:15;18.40;61.40
76878;DHT22;65843;50.692;12.844;2023-02-01T01:45:36;18.40;61.40
76878;DHT22;65843;50.692;12.844;2023-02-01T01:46:37;18.40;61.30
76878;DHT22;65843;50.692;12.844;2023-02-01T01:47:40;18.40;61.30
76878;DHT22;65843;50.692;12.844;2023-02-01T01:48:41;18.40;61.30
76878;DHT22;65843;50.692;12.844;2023-02-01T01:49:42;18.40;61.30
76878;DHT22;65843;50.692;12.844;2023-02-01T01:50:45;18.40;61.40
76878;DHT22;65843;50.692;12.844;2023-02-01T01:51:49;18.40;61.30
76878;DHT22;65843;50.692;12.844;2023-02-01T01:52:51;18.40;61.50
76878;DHT22;65843;50.692;12.844;2023-02-01T01:53:56;18.40;61.50
76878;DHT22;65843;50.692;12.844;2023-02-01T01:54:59;18.40;61.60
76878;DHT22;65843;50.692;12.844;2023-02-01T01:56:00;18.40;61.60
76878;DHT22;65843;50.692;12.844;2023-02-01T01:57:03;18.40;61.60
76878;DHT22;65843;50.692;12.844;2023-02-01T01:58:06;18.40;61.50
76878;DHT22;65843;50.692;12.844;2023-02-01T01:59:07;18.40;61.00
76878;DHT22;65843;50.692;12.844;2023-02-01T02:00:10;18.40;61.30
76878;DHT22;65843;50.692;12.844;2023-02-01T02:01:11;18.30;61.30
76878;DHT22;65843;50.692;12.844;2023-02-01T02:02:12;18.40;61.20
76878;DHT22;65843;50.692;12.844;2023-02-01T02:03:15;18.40;61.20
76878;DHT22;65843;50.692;12.844;2023-02-01T02:04:18;18.40;61.10
76878;DHT22;65843;50.692;12.844;2023-02-01T02:05:19;18.40;61.30
76878;DHT22;65843;50.692;12.844;2023-02-01T02:07:40;18.40;61.30
76878;DHT22;65843;50.692;12.844;2023-02-01T02:08:42;18.30;61.50
76878;DHT22;65843;50.692;12.844;2023-02-01T02:09:43;18.30;61.60
76878;DHT22;65843;50.692;12.844;2023-02-01T02:10:44;18.30;61.50
76878;DHT22;65843;50.692;12.844;2023-02-01T02:12:00;18.30;61.40
76878;DHT22;65843;50.692;12.844;2023-02-01T02:13:01;18.30;61.40
76878;DHT22;65843;50.692;12.844;2023-02-01T02:14:01;18.30;61.40
76878;DHT22;65843;50.692;12.844;2023-02-01T02:15:04;18.30;61.30
76878;DHT22;65843;50.692;12.844;2023-02-01T02:17:16;18.30;61.40
76878;DHT22;65843;50.692;12.844;2023-02-01T02:18:19;18.30;61.30
76878;DHT22;65843;50.692;12.844;2023-02-01T02:19:32;18.30;61.80
76878;DHT22;65843;50.692;12.844;2023-02-01T02:21:04;18.30;61.60
76878;DHT22;65843;50.692;12.844;2023-02-01T02:22:42;18.30;61.70
76878;DHT22;65843;50.692;12.844;2023-02-01T02:27:06;18.30;61.70
76878;DHT22;65843;50.692;12.844;2023-02-01T02:34:09;18.40;61.80
76878;DHT22;65843;50.692;12.844;2023-02-01T02:37:38;18.40;61.50
76878;DHT22;65843;50.692;12.844;2023-02-01T02:38:43;18.40;61.60
76878;DHT22;65843;50.692;12.844;2023-02-01T02:40:05;18.40;61.40
76878;DHT22;65843;50.692;12.844;2023-02-01T02:41:14;18.40;61.70
76878;DHT22;65843;50.692;12.844;2023-02-01T02:42:58;18.40;61.60
76878;DHT22;65843;50.692;12.844;2023-02-01T02:44:22;18.40;61.70
76878;DHT22;65843;50.692;12.844;2023-02-01T02:46:04;18.40;61.40
76878;DHT22;65843;50.692;12.844;2023-02-01T02:48:48;18.40;61.50
76878;DHT22;65843;50.692;12.844;2023-02-01T02:50:05;18.40;61.40
76878;DHT22;65843;50.692;12.844;2023-02-01T02:51:28;18.40;61.50
76878;DHT22;65843;50.692;12.844;2023-02-01T02:52:51;18.40;61.60
76878;DHT22;65843;50.692;12.844;2023-02-01T02:54:15;18.40;61.60
76878;DHT22;65843;50.692;12.844;2023-02-01T02:55:35;18.40;61.50
76878;DHT22;65843;50.692;12.844;2023-02-01T02:56:38;18.40;62.00
76878;DHT22;65843;50.692;12.844;2023-02-01T02:57:58;18.40;61.60
76878;DHT22;65843;50.692;12.844;2023-02-01T02:59:19;18.40;61.90
76878;DHT22;65843;50.692;12.844;2023-02-01T03:00:40;18.40;61.70
76878;DHT22;65843;50.692;12.844;2023-02-01T03:02:00;18.40;62.00
76878;DHT22;65843;50.692;12.844;2023-02-01T03:03:20;18.40;61.90
76878;DHT22;65843;50.692;12.844;2023-02-01T03:04:39;18.40;62.00
76878;DHT22;65843;50.692;12.844;2023-02-01T03:05:43;18.40;61.90
76878;DHT22;65843;50.692;12.844;2023-02-01T03:06:44;18.40;61.60
76878;DHT22;65843;50.692;12.844;2023-02-01T03:08:46;18.40;61.50
76878;DHT22;65843;50.692;12.844;2023-02-01T03:09:47;18.40;61.80
76878;DHT22;65843;50.692;12.844;2023-02-01T03:11:57;18.40;61.90
76878;DHT22;65843;50.692;12.844;2023-02-01T03:13:28;18.40;61.90
76878;DHT22;65843;50.692;12.844;2023-02-01T03:14:32;18.40;62.00
76878;DHT22;65843;50.692;12.844;2023-02-01T03:15:42;18.40;61.70
76878;DHT22;65843;50.692;12.844;2023-02-01T03:16:50;18.40;62.10
76878;DHT22;65843;50.692;12.844;2023-02-01T03:17:52;18.40;61.50
76878;DHT22;65843;50.692;12.844;2023-02-01T03:19:58;18.40;62.00
76878;DHT22;65843;50.692;12.844;2023-02-01T03:21:02;18.40;61.90
76878;DHT22;65843;50.692;12.844;2023-02-01T03:22:08;18.40;61.80
76878;DHT22;65843;50.692;12.844;2023-02-01T03:23:10;18.40;61.80
76878;DHT22;65843;50.692;12.844;2023-02-01T03:24:17;18.40;61.80
76878;DHT22;65843;50.692;12.844;2023-02-01T03:25:21;18.40;61.80
76878;DHT22;65843;50.692;12.844;2023-02-01T03:26:23;18.40;61.80
76878;DHT22;65843;50.692;12.844;2023-02-01T03:27:30;18.40;61.80
76878;DHT22;65843;50.692;12.844;2023-02-01T03:28:32;18.40;62.00
76878;DHT22;65843;50.692;12.844;2023-02-01T03:29:43;18.40;62.00
76878;DHT22;65843;50.692;12.844;2023-02-01T03:30:45;18.40;62.20
76878;DHT22;65843;50.692;12.844;2023-02-01T03:31:46;18.40;62.30
76878;DHT22;65843;50.692;12.844;2023-02-01T03:32:47;18.40;62.00
76878;DHT22;65843;50.692;12.844;2023-02-01T03:34:01;18.40;62.30
76878;DHT22;65843;50.692;12.844;2023-02-01T03:35:02;18.40;61.90
76878;DHT22;65843;50.692;12.844;2023-02-01T03:37:25;18.40;62.20
76878;DHT22;65843;50.692;12.844;2023-02-01T03:39:42;18.40;62.00
76878;DHT22;65843;50.692;12.844;2023-02-01T03:40:48;18.40;61.90
76878;DHT22;65843;50.692;12.844;2023-02-01T03:42:51;18.40;62.30
76878;DHT22;65843;50.692;12.844;2023-02-01T03:46:00;18.40;62.20
76878;DHT22;65843;50.692;12.844;2023-02-01T03:47:05;18.40;62.30
76878;DHT22;65843;50.692;12.844;2023-02-01T03:48:09;18.40;62.10
76878;DHT22;65843;50.692;12.844;2023-02-01T03:49:11;18.40;62.10
76878;DHT22;65843;50.692;12.844;2023-02-01T03:51:16;18.40;62.30
76878;DHT22;65843;50.692;12.844;2023-02-01T03:52:19;18.40;62.30
76878;DHT22;65843;50.692;12.844;2023-02-01T03:53:21;18.40;62.10
76878;DHT22;65843;50.692;12.844;2023-02-01T03:54:22;18.40;62.20
76878;DHT22;65843;50.692;12.844;2023-02-01T03:55:25;18.40;61.90
76878;DHT22;65843;50.692;12.844;2023-02-01T03:56:27;18.30;62.20
76878;DHT22;65843;50.692;12.844;2023-02-01T03:57:31;18.40;62.40
76878;DHT22;65843;50.692;12.844;2023-02-01T03:58:33;18.40;62.30
76878;DHT22;65843;50.692;12.844;2023-02-01T03:59:34;18.40;61.90
76878;DHT22;65843;50.692;12.844;2023-02-01T04:00:35;18.40;62.20
76878;DHT22;65843;50.692;12.844;2023-02-01T04:01:36;18.40;62.00
76878;DHT22;65843;50.692;12.844;2023-02-01T04:02:36;18.30;62.10
76878;DHT22;65843;50.692;12.844;2023-02-01T04:03:37;18.30;62.10
76878;DHT22;65843;50.692;12.844;2023-02-01T04:04:38;18.30;62.40
76878;DHT22;65843;50.692;12.844;2023-02-01T04:05:39;18.30;62.30
76878;DHT22;65843;50.692;12.844;2023-02-01T04:06:40;18.30;62.20
76878;DHT22;65843;50.692;12.844;2023-02-01T04:07:41;18.30;62.50
76878;DHT22;65843;50.692;12.844;2023-02-01T04:08:41;18.30;62.40
76878;DHT22;65843;50.692;12.844;2023-02-01T04:09:42;18.30;62.30
76878;DHT22;65843;50.692;12.844;2023-02-01T04:10:43;18.30;62.50
76878;DHT22;65843;50.692;12.844;2023-02-01T04:11:44;18.30;62.10
76878;DHT22;65843;50.692;12.844;2023-02-01T04:12:45;18.30;62.50
76878;DHT22;65843;50.692;12.844;2023-02-01T04:13:46;18.30;62.20
76878;DHT22;65843;50.692;12.844;2023-02-01T04:14:47;18.30;62.50
76878;DHT22;65843;50.692;12.844;2023-02-01T04:15:48;18.30;62.40
76878;DHT22;65843;50.692;12.844;2023-02-01T04:16:50;18.30;62.20
76878;DHT22;65843;50.692;12.844;2023-02-01T04:17:51;18.30;62.30
76878;DHT22;65843;50.692;12.844;2023-02-01T04:18:52;18.30;62.40
76878;DHT22;65843;50.692;12.844;2023-02-01T04:19:52;18.30;62.60
76878;DHT22;65843;50.692;12.844;2023-02-01T04:20:53;18.30;62.30
76878;DHT22;65843;50.692;12.844;2023-02-01T04:21:54;18.40;62.70
76878;DHT22;65843;50.692;12.844;2023-02-01T04:22:55;18.30;62.70
76878;DHT22;65843;50.692;12.844;2023-02-01T04:23:56;18.30;62.50
76878;DHT22;65843;50.692;12.844;2023-02-01T04:24:57;18.30;62.60
76878;DHT22;65843;50.692;12.844;2023-02-01T04:26:02;18.30;62.60
76878;DHT22;65843;50.692;12.844;2023-02-01T04:27:03;18.30;62.90
76878;DHT22;65843;50.692;12.844;2023-02-01T04:28:04;18.30;63.20
76878;DHT22;65843;50.692;12.844;2023-02-01T04:29:05;18.30;63.10
76878;DHT22;65843;50.692;12.844;2023-02-01T04:30:06;18.40;63.00
76878;DHT22;65843;50.692;12.844;2023-02-01T04:31:10;18.30;63.10
76878;DHT22;65843;50.692;12.844;2023-02-01T04:32:11;18.30;63.00
76878;DHT22;65843;50.692;12.844;2023-02-01T04:33:11;18.30;63.10
76878;DHT22;65843;50.692;12.844;2023-02-01T04:34:14;18.30;63.20
76878;DHT22;65843;50.692;12.844;2023-02-01T04:35:15;18.40;63.20
76878;DHT22;65843;50.692;12.844;2023-02-01T04:36:18;18.40;63.20
76878;DHT22;65843;50.692;12.844;2023-02-01T04:37:21;18.40;63.20
76878;DHT22;65843;50.692;12.844;2023-02-01T04:38:22;18.40;63.30
76878;DHT22;65843;50.692;12.844;2023-02-01T04:39:23;18.40;63.30
76878;DHT22;65843;50.692;12.844;2023-02-01T04:40:23;18.40;63.30
76878;DHT22;65843;50.692;12.844;2023-02-01T04:41:24;18.40;63.50
76878;DHT22;65843;50.692;12.844;2023-02-01T04:42:25;18.40;63.50
76878;DHT22;65843;50.692;12.844;2023-02-01T04:43:26;18.40;63.20
76878;DHT22;65843;50.692;12.844;2023-02-01T04:44:27;18.40;63.40
76878;DHT22;65843;50.692;12.844;2023-02-01T04:45:28;18.40;63.20
76878;DHT22;65843;50.692;12.844;2023-02-01T04:46:28;18.40;63.30
76878;DHT22;65843;50.692;12.844;2023-02-01T04:47:29;18.50;62.80
76878;DHT22;65843;50.692;12.844;2023-02-01T04:48:30;18.50;62.70
76878;DHT22;65843;50.692;12.844;2023-02-01T04:49:31;18.50;62.80
76878;DHT22;65843;50.692;12.844;2023-02-01T04:50:32;18.50;62.70
76878;DHT22;65843;50.692;12.844;2023-02-01T04:51:33;18.40;62.80
76878;DHT22;65843;50.692;12.844;2023-02-01T04:52:34;18.40;62.60
76878;DHT22;65843;50.692;12.844;2023-02-01T04:53:34;18.40;62.50
76878;DHT22;65843;50.692;12.844;2023-02-01T04:54:35;18.40;62.40
76878;DHT22;65843;50.692;12.844;2023-02-01T04:55:36;18.40;62.40
76878;DHT22;65843;50.692;12.844;2023-02-01T04:56:37;18.40;62.10
76878;DHT22;65843;50.692;12.844;2023-02-01T04:57:39;18.40;62.40
76878;DHT22;65843;50.692;12.844;2023-02-01T04:58:40;18.40;62.00
76878;DHT22;65843;50.692;12.844;2023-02-01T04:59:41;18.40;62.00
76878;DHT22;65843;50.692;12.844;2023-02-01T05:00:42;18.30;61.90
76878;DHT22;65843;50.692;12.844;2023-02-01T05:01:43;18.30;62.00
76878;DHT22;65843;50.692;12.844;2023-02-01T05:02:44;18.30;62.00
76878;DHT22;65843;50.692;12.844;2023-02-01T05:03:45;18.30;62.00
76878;DHT22;65843;50.692;12.844;2023-02-01T05:04:45;18.30;61.80
76878;DHT22;65843;50.692;12.844;2023-02-01T05:05:47;18.30;62.00
76878;DHT22;65843;50.692;12.844;2023-02-01T05:06:48;18.30;61.90
76878;DHT22;65843;50.692;12.844;2023-02-01T05:07:49;18.30;62.20
76878;DHT22;65843;50.692;12.844;2023-02-01T05:08:50;18.20;61.90
76878;DHT22;65843;50.692;12.844;2023-02-01T05:09:51;18.20;62.00
76878;DHT22;65843;50.692;12.844;2023-02-01T05:10:52;18.20;62.30
76878;DHT22;65843;50.692;12.844;2023-02-01T05:11:53;18.20;62.40
76878;DHT22;65843;50.692;12.844;2023-02-01T05:13:12;18.20;62.10
76878;DHT22;65843;50.692;12.844;2023-02-01T05:14:32;18.20;61.90
76878;DHT22;65843;50.692;12.844;2023-02-01T05:15:33;18.20;61.70
76878;DHT22;65843;50.692;12.844;2023-02-01T05:16:34;18.20;61.70
76878;DHT22;65843;50.692;12.844;2023-02-01T05:17:35;18.20;61.70
76878;DHT22;65843;50.692;12.844;2023-02-01T05:18:36;18.20;62.10
76878;DHT22;65843;50.692;12.844;2023-02-01T05:19:37;18.20;61.70
76878;DHT22;65843;50.692;12.844;2023-02-01T05:20:38;18.20;61.80
76878;DHT22;65843;50.692;12.844;2023-02-01T05:21:39;18.20;61.60
76878;DHT22;65843;50.692;12.844;2023-02-01T05:22:40;18.20;61.60
76878;DHT22;65843;50.692;12.844;2023-02-01T05:23:41;18.20;61.60
76878;DHT22;65843;50.692;12.844;2023-02-01T05:25:01;18.20;61.70
76878;DHT22;65843;50.692;12.844;2023-02-01T05:26:02;18.20;61.60
76878;DHT22;65843;50.692;12.844;2023-02-01T05:27:03;18.20;61.30
76878;DHT22;65843;50.692;12.844;2023-02-01T05:28:04;18.20;61.10
76878;DHT22;65843;50.692;12.844;2023-02-01T05:29:05;18.20;61.20
76878;DHT22;65843;50.692;12.844;2023-02-01T05:30:06;18.20;61.50
76878;DHT22;65843;50.692;12.844;2023-02-01T05:31:10;18.20;61.80
76878;DHT22;65843;50.692;12.844;2023-02-01T05:32:11;18.20;61.60
76878;DHT22;65843;50.692;12.844;2023-02-01T05:33:12;18.20;61.40
76878;DHT22;65843;50.692;12.844;2023-02-01T05:34:13;18.20;61.50
76878;DHT22;65843;50.692;12.844;2023-02-01T05:35:14;18.20;61.60
76878;DHT22;65843;50.692;12.844;2023-02-01T05:36:15;18.10;61.40
76878;DHT22;65843;50.692;12.844;2023-02-01T05:37:16;18.20;62.40
76878;DHT22;65843;50.692;12.844;2023-02-01T05:38:17;18.20;62.00
76878;DHT22;65843;50.692;12.844;2023-02-01T05:39:18;18.20;62.10
76878;DHT22;65843;50.692;12.844;2023-02-01T05:40:19;18.20;61.70
76878;DHT22;65843;50.692;12.844;2023-02-01T05:41:20;18.20;60.40
76878;DHT22;65843;50.692;12.844;2023-02-01T05:42:22;18.20;60.40
76878;DHT22;65843;50.692;12.844;2023-02-01T05:43:23;18.20;59.10
76878;DHT22;65843;50.692;12.844;2023-02-01T05:44:24;18.20;59.40
76878;DHT22;65843;50.692;12.844;2023-02-01T05:45:25;18.20;59.30
76878;DHT22;65843;50.692;12.844;2023-02-01T05:46:25;18.20;59.10
76878;DHT22;65843;50.692;12.844;2023-02-01T05:47:26;18.20;58.20
76878;DHT22;65843;50.692;12.844;2023-02-01T05:48:27;18.20;58.60
76878;DHT22;65843;50.692;12.844;2023-02-01T05:49:28;18.20;58.20
76878;DHT22;65843;50.692;12.844;2023-02-01T05:50:29;18.20;58.00
76878;DHT22;65843;50.692;12.844;2023-02-01T05:51:30;18.20;58.20
76878;DHT22;65843;50.692;12.844;2023-02-01T05:52:31;18.30;57.60
76878;DHT22;65843;50.692;12.844;2023-02-01T05:53:32;18.30;57.10
76878;DHT22;65843;50.692;12.844;2023-02-01T05:54:33;18.30;55.50
76878;DHT22;65843;50.692;12.844;2023-02-01T05:55:33;18.30;56.80
76878;DHT22;65843;50.692;12.844;2023-02-01T05:56:34;18.30;55.80
76878;DHT22;65843;50.692;12.844;2023-02-01T05:57:35;18.30;55.70
76878;DHT22;65843;50.692;12.844;2023-02-01T05:58:36;18.40;55.40
76878;DHT22;65843;50.692;12.844;2023-02-01T05:59:37;18.40;54.50
76878;DHT22;65843;50.692;12.844;2023-02-01T06:00:41;18.40;55.50
76878;DHT22;65843;50.692;12.844;2023-02-01T06:01:42;18.40;54.70
76878;DHT22;65843;50.692;12.844;2023-02-01T06:02:43;18.50;54.10
76878;DHT22;65843;50.692;12.844;2023-02-01T06:03:44;18.50;55.10
76878;DHT22;65843;50.692;12.844;2023-02-01T06:04:45;18.50;55.50
76878;DHT22;65843;50.692;12.844;2023-02-01T06:05:46;18.50;55.00
76878;DHT22;65843;50.692;12.844;2023-02-01T06:06:47;18.60;54.60
76878;DHT22;65843;50.692;12.844;2023-02-01T06:07:51;18.60;54.70
76878;DHT22;65843;50.692;12.844;2023-02-01T06:08:51;18.60;54.40
76878;DHT22;65843;50.692;12.844;2023-02-01T06:09:52;18.70;54.40
76878;DHT22;65843;50.692;12.844;2023-02-01T06:10:57;18.70;54.40
76878;DHT22;65843;50.692;12.844;2023-02-01T06:11:58;18.70;54.30
76878;DHT22;65843;50.692;12.844;2023-02-01T06:13:00;18.70;54.00
76878;DHT22;65843;50.692;12.844;2023-02-01T06:14:00;18.70;53.90
76878;DHT22;65843;50.692;12.844;2023-02-01T06:15:01;18.70;53.80
76878;DHT22;65843;50.692;12.844;2023-02-01T06:16:02;18.70;53.90
76878;DHT22;65843;50.692;12.844;2023-02-01T06:17:03;18.80;53.60
76878;DHT22;65843;50.692;12.844;2023-02-01T06:18:06;18.80;53.60
76878;DHT22;65843;50.692;12.844;2023-02-01T06:19:07;18.80;53.80
76878;DHT22;65843;50.692;12.844;2023-02-01T06:20:07;18.80;53.60
76878;DHT22;65843;50.692;12.844;2023-02-01T06:21:08;18.80;54.00
76878;DHT22;65843;50.692;12.844;2023-02-01T06:22:09;18.80;54.20
76878;DHT22;65843;50.692;12.844;2023-02-01T06:23:10;18.90;54.20
76878;DHT22;65843;50.692;12.844;2023-02-01T06:24:11;18.90;54.10
76878;DHT22;65843;50.692;12.844;2023-02-01T06:25:12;18.90;53.70
76878;DHT22;65843;50.692;12.844;2023-02-01T06:26:13;18.90;53.90
76878;DHT22;65843;50.692;12.844;2023-02-01T06:27:14;18.90;53.70
76878;DHT22;65843;50.692;12.844;2023-02-01T06:28:15;18.90;53.80
76878;DHT22;65843;50.692;12.844;2023-02-01T06:29:16;18.90;53.30
76878;DHT22;65843;50.692;12.844;2023-02-01T06:30:17;18.90;54.00
76878;DHT22;65843;50.692;12.844;2023-02-01T06:31:18;18.90;53.70
76878;DHT22;65843;50.692;12.844;2023-02-01T06:32:18;18.90;53.70
76878;DHT22;65843;50.692;12.844;2023-02-01T06:33:19;18.90;53.50
76878;DHT22;65843;50.692;12.844;2023-02-01T06:34:20;18.90;53.60
76878;DHT22;65843;50.692;12.844;2023-02-01T06:35:23;18.90;53.80
76878;DHT22;65843;50.692;12.844;2023-02-01T06:36:24;18.80;53.40
76878;DHT22;65843;50.692;12.844;2023-02-01T06:37:25;18.80;53.60
76878;DHT22;65843;50.692;12.844;2023-02-01T06:38:27;18.80;53.40
76878;DHT22;65843;50.692;12.844;2023-02-01T06:39:27;18.80;53.00
76878;DHT22;65843;50.692;12.844;2023-02-01T06:40:29;18.80;53.40
76878;DHT22;65843;50.692;12.844;2023-02-01T06:41:29;18.80;53.60
76878;DHT22;65843;50.692;12.844;2023-02-01T06:42:30;18.80;53.90
76878;DHT22;65843;50.692;12.844;2023-02-01T06:43:31;18.80;53.90
76878;DHT22;65843;50.692;12.844;2023-02-01T06:44:35;18.80;54.00
76878;DHT22;65843;50.692;12.844;2023-02-01T06:45:36;18.80;54.00
76878;DHT22;65843;50.692;12.844;2023-02-01T06:46:37;18.80;54.10
76878;DHT22;65843;50.692;12.844;2023-02-01T06:47:37;18.80;54.00
76878;DHT22;65843;50.692;12.844;2023-02-01T06:48:38;18.80;54.10
76878;DHT22;65843;50.692;12.844;2023-02-01T06:49:39;18.80;53.90
76878;DHT22;65843;50.692;12.844;2023-02-01T06:50:41;18.80;54.10
76878;DHT22;65843;50.692;12.844;2023-02-01T06:51:41;18.80;53.90
76878;DHT22;65843;50.692;12.844;2023-02-01T06:52:42;18.80;54.00
76878;DHT22;65843;50.692;12.844;2023-02-01T06:53:43;18.70;54.00
76878;DHT22;65843;50.692;12.844;2023-02-01T06:54:44;18.70;54.00
76878;DHT22;65843;50.692;12.844;2023-02-01T06:55:58;18.70;54.00
76878;DHT22;65843;50.692;12.844;2023-02-01T06:56:59;18.70;53.90
76878;DHT22;65843;50.692;12.844;2023-02-01T06:58:00;18.70;54.00